Saint Petersburg, FL

9:23 PM EDT on September 30, 2014 (GMT -0400)
Municipal Marina | Change Station
CLOSE
Current Station
Personal Weather Station
Location: St. Petersburg, FL
Elevation: 0 ft
Nearby Weather Stations

Elev 0 ft 27.77 °N, 82.63 °W | Updated 2 minutes ago

Overcast
Overcast
79.0 °F
Feels Like 83 °F
N
-
Wind Variable Wind from North

Today
High -- | Low -- °F
--% Chance of Precip.
Yesterday
High -- | Low -- °F
Precip. -- in
7:22 AM 7:17 PM
Waxing Crescent, 42% visible
Pressure 29.83 in
Visibility 10.0 miles
Clouds Mostly Cloudy 2000 ft
Overcast 2400 ft
Heat Index 83 °F
Dew Point 76 °F
Humidity 91%
Rainfall -999.00 in
Snow Depth Not available.
UV 0 out of 12
Pollen 5.00 out of 12
Air Quality Not available.
Flu Activity Not available.
METAR KSPG 010053Z AUTO 15008KT 10SM BKN020 OVC024 27/24 A2983 RMK AO2 RAB02E29 SLP099 P0002 T02670244

More Conditions Fewer Conditions

Pressure 29.83 in
Visibility 10.0 miles
Clouds Mostly Cloudy 2000 ft
Overcast 2400 ft
Heat Index 83 °F
Dew Point 76 °F
Humidity 91%
Rainfall -999.00 in
Snow Depth Not available.
UV 0 out of 12
Pollen 5.00 out of 12
Air Quality Not available.
Flu Activity Not available.
METAR KSPG 010053Z AUTO 15008KT 10SM BKN020 OVC024 27/24 A2983 RMK AO2 RAB02E29 SLP099 P0002 T02670244

More Conditions Fewer Conditions

10-Day Weather Forecast

Almanac

Astronomy

Sep. 30, 2014 Rise Set
Actual Time 7:22 AM EDT 7:17 PM EDT
Civil Twilight 6:59 AM EDT 7:41 PM EDT
Nautical Twilight 6:32 AM EDT 8:08 PM EDT
Astronomical Twilight 6:05 AM EDT 8:35 PM EDT
Moon 1:07 PM EDT (9/30) No Moon Set
Length of Visible Light 12h 41m
Length of Day
11h 54m
Tomorrow will be 1m 38s shorter.
Waxing Crescent, 42% of the Moon is Illuminated
Today
Waxing Crescent
Oct 1
First Quarter
Oct 8
Full
Oct 15
Last Quarter
Oct 23
New

Today's Extremes

State Highs State Lows

Community

WunderPhotos

Upload Photos

1,757,815 photos uploaded!

Nearby

Air Quality

  Air Quality AQ Index Pollutant
Yesterday Good
OZONE
Yesterday Good
PM2.5
Tuesday Good
PM2.5
Tuesday Good
OZONE
Wednesday Good
PM2.5
Wednesday Good
OZONE

Snow Depth

Station Depth Elevation
No new snow has been reported.

Earthquake Activity

City Distance Mag. Time & Date
No recent earthquake activity has been reported nearby.
Minimum magnitude displayed is 2.5.

Coastal Water Temperatures

Place Temperature
St Petersburg, FL 84.9 °F
Old Port Tampa, FL 84.0 °F
McKay Bay Entrance, FL 84.0 °F

Nearby Weather Stations